sensor_id;sensor_type;location;lat;lon;timestamp;pressure;altitude;pressure_sealevel;temperature;humidity
6615;BME280;3343;42.896;23.912;2022-07-23T00:00:12;96707.97;;;26.89;48.62
6615;BME280;3343;42.896;23.912;2022-07-23T00:02:39;96712.47;;;26.99;48.73
6615;BME280;3343;42.896;23.912;2022-07-23T00:05:08;96712.13;;;27.05;48.85
6615;BME280;3343;42.896;23.912;2022-07-23T00:07:35;96711.69;;;26.93;48.72
6615;BME280;3343;42.896;23.912;2022-07-23T00:10:02;96722.22;;;27.18;48.43
6615;BME280;3343;42.896;23.912;2022-07-23T00:12:29;96715.78;;;26.85;48.89
6615;BME280;3343;42.896;23.912;2022-07-23T00:14:56;96720.28;;;27.00;48.65
6615;BME280;3343;42.896;23.912;2022-07-23T00:17:23;96722.88;;;26.81;49.41
6615;BME280;3343;42.896;23.912;2022-07-23T00:19:49;96719.34;;;26.81;49.60
6615;BME280;3343;42.896;23.912;2022-07-23T00:22:19;96718.63;;;27.04;49.06
6615;BME280;3343;42.896;23.912;2022-07-23T00:24:46;96710.09;;;26.92;49.33
6615;BME280;3343;42.896;23.912;2022-07-23T00:27:13;96707.84;;;26.46;50.72
6615;BME280;3343;42.896;23.912;2022-07-23T00:29:39;96713.72;;;25.80;53.08
6615;BME280;3343;42.896;23.912;2022-07-23T00:32:06;96716.69;;;26.18;52.02
6615;BME280;3343;42.896;23.912;2022-07-23T00:34:33;96713.34;;;26.31;51.24
6615;BME280;3343;42.896;23.912;2022-07-23T00:37:00;96709.06;;;26.59;50.36
6615;BME280;3343;42.896;23.912;2022-07-23T00:39:28;96712.38;;;26.51;50.49
6615;BME280;3343;42.896;23.912;2022-07-23T00:41:55;96712.00;;;26.62;50.43
6615;BME280;3343;42.896;23.912;2022-07-23T00:44:24;96707.47;;;26.82;49.56
6615;BME280;3343;42.896;23.912;2022-07-23T00:46:54;96703.78;;;26.73;50.07
6615;BME280;3343;42.896;23.912;2022-07-23T00:49:22;96702.25;;;26.38;51.07
6615;BME280;3343;42.896;23.912;2022-07-23T00:51:50;96700.78;;;26.50;50.86
6615;BME280;3343;42.896;23.912;2022-07-23T00:54:17;96698.38;;;26.73;49.86
6615;BME280;3343;42.896;23.912;2022-07-23T00:56:46;96708.91;;;26.74;50.03
6615;BME280;3343;42.896;23.912;2022-07-23T00:59:13;96699.06;;;26.83;49.78
6615;BME280;3343;42.896;23.912;2022-07-23T01:01:40;96693.72;;;26.78;49.45
6615;BME280;3343;42.896;23.912;2022-07-23T01:04:10;96701.47;;;26.90;49.37
6615;BME280;3343;42.896;23.912;2022-07-23T01:06:38;96695.34;;;26.79;49.79
6615;BME280;3343;42.896;23.912;2022-07-23T01:09:05;96695.28;;;26.60;50.61
6615;BME280;3343;42.896;23.912;2022-07-23T01:11:33;96681.38;;;26.14;51.78
6615;BME280;3343;42.896;23.912;2022-07-23T01:14:09;96693.19;;;26.52;50.58
6615;BME280;3343;42.896;23.912;2022-07-23T01:16:36;96693.59;;;26.41;50.82
6615;BME280;3343;42.896;23.912;2022-07-23T01:19:03;96693.88;;;26.00;52.59
6615;BME280;3343;42.896;23.912;2022-07-23T01:21:34;96686.72;;;25.41;54.65
6615;BME280;3343;42.896;23.912;2022-07-23T01:24:04;96689.84;;;25.04;56.25
6615;BME280;3343;42.896;23.912;2022-07-23T01:26:31;96693.56;;;25.23;55.53
6615;BME280;3343;42.896;23.912;2022-07-23T01:28:58;96685.13;;;25.35;55.11
6615;BME280;3343;42.896;23.912;2022-07-23T01:31:25;96689.56;;;24.95;56.49
6615;BME280;3343;42.896;23.912;2022-07-23T01:33:52;96689.88;;;24.89;56.89
6615;BME280;3343;42.896;23.912;2022-07-23T01:36:19;96695.19;;;25.14;56.00
6615;BME280;3343;42.896;23.912;2022-07-23T01:38:47;96688.59;;;25.46;54.69
6615;BME280;3343;42.896;23.912;2022-07-23T01:41:15;96690.38;;;25.60;54.57
6615;BME280;3343;42.896;23.912;2022-07-23T01:43:42;96691.91;;;25.77;53.86
6615;BME280;3343;42.896;23.912;2022-07-23T01:46:09;96692.47;;;25.74;53.52
6615;BME280;3343;42.896;23.912;2022-07-23T01:48:36;96689.78;;;25.74;53.92
6615;BME280;3343;42.896;23.912;2022-07-23T01:51:03;96688.63;;;25.85;53.35
6615;BME280;3343;42.896;23.912;2022-07-23T01:53:30;96674.13;;;25.76;53.33
6615;BME280;3343;42.896;23.912;2022-07-23T01:55:57;96685.06;;;25.89;53.05
6615;BME280;3343;42.896;23.912;2022-07-23T01:58:26;96687.81;;;25.40;54.65
6615;BME280;3343;42.896;23.912;2022-07-23T02:00:54;96687.34;;;25.23;55.25
6615;BME280;3343;42.896;23.912;2022-07-23T02:03:21;96685.09;;;25.40;54.60
6615;BME280;3343;42.896;23.912;2022-07-23T02:05:48;96679.03;;;25.63;53.98
6615;BME280;3343;42.896;23.912;2022-07-23T02:08:16;96689.19;;;25.82;53.58
6615;BME280;3343;42.896;23.912;2022-07-23T02:10:43;96687.25;;;25.87;52.85
6615;BME280;3343;42.896;23.912;2022-07-23T02:13:10;96681.84;;;25.87;52.99
6615;BME280;3343;42.896;23.912;2022-07-23T02:15:38;96695.81;;;25.94;52.62
6615;BME280;3343;42.896;23.912;2022-07-23T02:18:05;96684.63;;;25.77;53.09
6615;BME280;3343;42.896;23.912;2022-07-23T02:20:33;96689.00;;;25.63;53.17
6615;BME280;3343;42.896;23.912;2022-07-23T02:23:00;96686.38;;;25.53;53.83
6615;BME280;3343;42.896;23.912;2022-07-23T02:25:27;96681.97;;;25.72;53.07
6615;BME280;3343;42.896;23.912;2022-07-23T02:27:54;96689.88;;;24.89;56.23
6615;BME280;3343;42.896;23.912;2022-07-23T02:30:20;96687.00;;;24.55;57.75
6615;BME280;3343;42.896;23.912;2022-07-23T02:32:48;96677.22;;;24.84;56.67
6615;BME280;3343;42.896;23.912;2022-07-23T02:35:15;96669.41;;;24.93;56.16
6615;BME280;3343;42.896;23.912;2022-07-23T02:37:42;96687.94;;;25.09;56.13
6615;BME280;3343;42.896;23.912;2022-07-23T02:40:10;96680.84;;;25.29;55.71
6615;BME280;3343;42.896;23.912;2022-07-23T02:42:37;96691.13;;;25.22;55.78
6615;BME280;3343;42.896;23.912;2022-07-23T02:45:05;96696.16;;;25.38;54.89
6615;BME280;3343;42.896;23.912;2022-07-23T02:47:32;96692.72;;;25.28;55.17
6615;BME280;3343;42.896;23.912;2022-07-23T02:50:00;96691.25;;;25.51;54.41
6615;BME280;3343;42.896;23.912;2022-07-23T02:52:29;96699.75;;;25.24;54.96
6615;BME280;3343;42.896;23.912;2022-07-23T02:54:56;96699.84;;;24.88;56.36
6615;BME280;3343;42.896;23.912;2022-07-23T02:57:22;96698.75;;;24.89;56.28
6615;BME280;3343;42.896;23.912;2022-07-23T02:59:49;96700.56;;;25.14;55.45
6615;BME280;3343;42.896;23.912;2022-07-23T03:02:16;96706.78;;;25.09;55.59
6615;BME280;3343;42.896;23.912;2022-07-23T03:04:43;96704.47;;;24.72;57.07
6615;BME280;3343;42.896;23.912;2022-07-23T03:07:11;96700.06;;;25.02;56.82
6615;BME280;3343;42.896;23.912;2022-07-23T03:20:18;96719.19;;;25.16;56.04
6615;BME280;3343;42.896;23.912;2022-07-23T03:22:45;96715.59;;;25.30;55.13
6615;BME280;3343;42.896;23.912;2022-07-23T03:25:13;96721.19;;;25.44;54.49
6615;BME280;3343;42.896;23.912;2022-07-23T03:27:40;96728.25;;;25.30;54.91
6615;BME280;3343;42.896;23.912;2022-07-23T03:30:08;96726.63;;;25.34;54.96
6615;BME280;3343;42.896;23.912;2022-07-23T03:32:35;96726.31;;;25.40;54.05
6615;BME280;3343;42.896;23.912;2022-07-23T03:35:02;96729.81;;;25.46;54.15
6615;BME280;3343;42.896;23.912;2022-07-23T03:37:32;96723.31;;;25.52;53.87
6615;BME280;3343;42.896;23.912;2022-07-23T03:39:58;96723.16;;;25.28;54.77
6615;BME280;3343;42.896;23.912;2022-07-23T03:42:25;96726.84;;;25.48;54.31
6615;BME280;3343;42.896;23.912;2022-07-23T03:44:53;96717.47;;;25.84;53.59
6615;BME280;3343;42.896;23.912;2022-07-23T03:47:20;96714.38;;;26.06;52.93
6615;BME280;3343;42.896;23.912;2022-07-23T03:49:47;96716.75;;;26.13;51.92
6615;BME280;3343;42.896;23.912;2022-07-23T03:52:14;96718.72;;;26.36;51.40
6615;BME280;3343;42.896;23.912;2022-07-23T03:54:43;96715.22;;;26.64;51.27
6615;BME280;3343;42.896;23.912;2022-07-23T03:57:09;96720.09;;;26.62;50.83
6615;BME280;3343;42.896;23.912;2022-07-23T03:59:36;96721.97;;;26.91;50.31
6615;BME280;3343;42.896;23.912;2022-07-23T04:02:03;96720.69;;;27.12;49.34
6615;BME280;3343;42.896;23.912;2022-07-23T04:04:30;96716.69;;;27.28;49.00
6615;BME280;3343;42.896;23.912;2022-07-23T04:06:57;96719.56;;;27.56;47.74
6615;BME280;3343;42.896;23.912;2022-07-23T04:09:24;96724.19;;;27.74;47.58
6615;BME280;3343;42.896;23.912;2022-07-23T04:11:52;96722.81;;;27.96;46.81
6615;BME280;3343;42.896;23.912;2022-07-23T04:14:19;96727.78;;;28.07;46.66
6615;BME280;3343;42.896;23.912;2022-07-23T04:16:46;96732.91;;;28.09;46.68
6615;BME280;3343;42.896;23.912;2022-07-23T04:19:12;96721.88;;;28.05;46.63
6615;BME280;3343;42.896;23.912;2022-07-23T04:21:39;96724.19;;;28.12;47.04
6615;BME280;3343;42.896;23.912;2022-07-23T04:24:06;96727.09;;;28.34;46.38
6615;BME280;3343;42.896;23.912;2022-07-23T04:26:33;96736.06;;;28.48;45.91
6615;BME280;3343;42.896;23.912;2022-07-23T04:29:01;96735.84;;;28.77;44.53
6615;BME280;3343;42.896;23.912;2022-07-23T04:31:28;96724.22;;;28.77;43.43
6615;BME280;3343;42.896;23.912;2022-07-23T04:33:55;96724.34;;;28.53;43.99
6615;BME280;3343;42.896;23.912;2022-07-23T04:36:22;96725.19;;;28.35;45.57
6615;BME280;3343;42.896;23.912;2022-07-23T04:38:49;96728.34;;;28.55;44.66
6615;BME280;3343;42.896;23.912;2022-07-23T04:41:16;96729.88;;;28.94;44.94
6615;BME280;3343;42.896;23.912;2022-07-23T04:43:43;96737.06;;;29.40;43.71
6615;BME280;3343;42.896;23.912;2022-07-23T04:46:11;96747.50;;;29.74;42.43
6615;BME280;3343;42.896;23.912;2022-07-23T04:48:38;96741.56;;;29.86;42.45
6615;BME280;3343;42.896;23.912;2022-07-23T04:51:05;96743.47;;;29.85;42.85
6615;BME280;3343;42.896;23.912;2022-07-23T04:53:32;96749.50;;;29.82;41.93
6615;BME280;3343;42.896;23.912;2022-07-23T04:55:58;96747.03;;;30.08;42.42
6615;BME280;3343;42.896;23.912;2022-07-23T04:58:25;96741.78;;;30.34;41.67
6615;BME280;3343;42.896;23.912;2022-07-23T05:00:52;96747.50;;;30.46;41.47
6615;BME280;3343;42.896;23.912;2022-07-23T05:03:20;96747.34;;;30.73;41.00
6615;BME280;3343;42.896;23.912;2022-07-23T05:05:47;96750.06;;;31.04;41.78
6615;BME280;3343;42.896;23.912;2022-07-23T05:08:14;96749.50;;;30.85;39.50
6615;BME280;3343;42.896;23.912;2022-07-23T05:10:41;96753.94;;;30.81;39.85
6615;BME280;3343;42.896;23.912;2022-07-23T05:13:08;96746.00;;;30.93;39.43
6615;BME280;3343;42.896;23.912;2022-07-23T05:15:36;96749.59;;;31.11;39.19
6615;BME280;3343;42.896;23.912;2022-07-23T05:18:03;96747.16;;;31.01;39.02
6615;BME280;3343;42.896;23.912;2022-07-23T05:20:31;96751.97;;;31.35;37.88
6615;BME280;3343;42.896;23.912;2022-07-23T05:22:58;96751.88;;;31.18;38.86
6615;BME280;3343;42.896;23.912;2022-07-23T05:25:25;96752.13;;;31.39;38.79
6615;BME280;3343;42.896;23.912;2022-07-23T05:27:51;96739.81;;;31.32;38.02
6615;BME280;3343;42.896;23.912;2022-07-23T05:30:19;96748.81;;;31.50;37.43
6615;BME280;3343;42.896;23.912;2022-07-23T05:32:45;96744.25;;;31.85;37.54
6615;BME280;3343;42.896;23.912;2022-07-23T05:35:12;96749.41;;;32.30;37.54
6615;BME280;3343;42.896;23.912;2022-07-23T05:37:40;96758.88;;;32.24;35.97
6615;BME280;3343;42.896;23.912;2022-07-23T05:40:09;96749.22;;;32.52;37.34
6615;BME280;3343;42.896;23.912;2022-07-23T05:42:38;96761.97;;;32.95;36.87
6615;BME280;3343;42.896;23.912;2022-07-23T05:45:06;96764.63;;;33.50;35.72
6615;BME280;3343;42.896;23.912;2022-07-23T05:47:39;96772.78;;;33.80;34.70
6615;BME280;3343;42.896;23.912;2022-07-23T05:50:07;96766.19;;;33.60;35.67
6615;BME280;3343;42.896;23.912;2022-07-23T05:52:34;96763.50;;;33.51;35.31
6615;BME280;3343;42.896;23.912;2022-07-23T05:55:02;96770.25;;;33.75;34.19
6615;BME280;3343;42.896;23.912;2022-07-23T05:57:29;96768.94;;;33.81;34.09
6615;BME280;3343;42.896;23.912;2022-07-23T05:59:56;96766.53;;;33.79;35.53
6615;BME280;3343;42.896;23.912;2022-07-23T06:02:23;96769.59;;;33.86;33.95
6615;BME280;3343;42.896;23.912;2022-07-23T06:04:50;96771.13;;;33.96;34.13
6615;BME280;3343;42.896;23.912;2022-07-23T06:07:16;96769.00;;;34.23;34.10
6615;BME280;3343;42.896;23.912;2022-07-23T06:09:44;96770.59;;;34.24;34.34
6615;BME280;3343;42.896;23.912;2022-07-23T06:12:13;96779.63;;;34.57;35.09
6615;BME280;3343;42.896;23.912;2022-07-23T06:14:40;96766.34;;;35.01;33.91
6615;BME280;3343;42.896;23.912;2022-07-23T06:17:07;96763.19;;;35.48;32.76
6615;BME280;3343;42.896;23.912;2022-07-23T06:19:34;96766.63;;;35.69;32.61
6615;BME280;3343;42.896;23.912;2022-07-23T06:22:01;96760.66;;;36.03;33.08
6615;BME280;3343;42.896;23.912;2022-07-23T06:24:29;96766.97;;;36.32;30.73
6615;BME280;3343;42.896;23.912;2022-07-23T06:26:56;96762.72;;;36.34;30.02
6615;BME280;3343;42.896;23.912;2022-07-23T06:29:24;96756.13;;;36.63;30.37
6615;BME280;3343;42.896;23.912;2022-07-23T06:31:51;96757.75;;;36.80;30.31
6615;BME280;3343;42.896;23.912;2022-07-23T06:34:18;96758.47;;;36.93;30.00
6615;BME280;3343;42.896;23.912;2022-07-23T06:36:45;96754.41;;;37.03;29.95
6615;BME280;3343;42.896;23.912;2022-07-23T06:39:12;96757.59;;;36.89;30.44
6615;BME280;3343;42.896;23.912;2022-07-23T06:41:38;96755.56;;;37.17;29.57
6615;BME280;3343;42.896;23.912;2022-07-23T06:44:05;96751.97;;;37.45;30.14
6615;BME280;3343;42.896;23.912;2022-07-23T06:46:33;96762.22;;;37.99;28.82
6615;BME280;3343;42.896;23.912;2022-07-23T06:49:00;96752.88;;;37.68;27.09
6615;BME280;3343;42.896;23.912;2022-07-23T06:51:29;96747.91;;;37.39;26.95
6615;BME280;3343;42.896;23.912;2022-07-23T06:53:56;96751.34;;;37.86;27.07
6615;BME280;3343;42.896;23.912;2022-07-23T06:56:24;96750.84;;;38.35;27.01
6615;BME280;3343;42.896;23.912;2022-07-23T06:58:51;96750.41;;;38.52;25.45
6615;BME280;3343;42.896;23.912;2022-07-23T07:01:17;96756.03;;;38.79;25.91
6615;BME280;3343;42.896;23.912;2022-07-23T07:03:46;96754.72;;;38.73;26.14
6615;BME280;3343;42.896;23.912;2022-07-23T07:06:13;96751.91;;;38.69;26.94
6615;BME280;3343;42.896;23.912;2022-07-23T07:08:40;96743.19;;;39.06;25.49
6615;BME280;3343;42.896;23.912;2022-07-23T07:11:08;96740.25;;;39.44;24.44
6615;BME280;3343;42.896;23.912;2022-07-23T07:13:35;96748.56;;;39.48;24.53
6615;BME280;3343;42.896;23.912;2022-07-23T07:16:02;96740.19;;;39.64;25.06
6615;BME280;3343;42.896;23.912;2022-07-23T07:18:29;96733.28;;;39.77;25.34
6615;BME280;3343;42.896;23.912;2022-07-23T07:20:57;96737.34;;;39.87;26.56
6615;BME280;3343;42.896;23.912;2022-07-23T07:23:24;96737.50;;;39.94;26.07
6615;BME280;3343;42.896;23.912;2022-07-23T07:25:51;96733.88;;;39.90;25.43
6615;BME280;3343;42.896;23.912;2022-07-23T07:28:18;96733.25;;;40.33;25.91
6615;BME280;3343;42.896;23.912;2022-07-23T07:30:45;96736.88;;;40.37;26.44
6615;BME280;3343;42.896;23.912;2022-07-23T07:33:12;96732.53;;;40.36;25.96
6615;BME280;3343;42.896;23.912;2022-07-23T07:35:39;96729.00;;;40.39;25.43
6615;BME280;3343;42.896;23.912;2022-07-23T07:38:07;96732.56;;;40.40;24.81
6615;BME280;3343;42.896;23.912;2022-07-23T07:40:34;96726.94;;;40.33;24.67
6615;BME280;3343;42.896;23.912;2022-07-23T07:43:01;96728.41;;;40.57;24.24
6615;BME280;3343;42.896;23.912;2022-07-23T07:45:29;96725.75;;;40.67;23.39
6615;BME280;3343;42.896;23.912;2022-07-23T07:47:55;96721.50;;;40.36;25.02
6615;BME280;3343;42.896;23.912;2022-07-23T07:50:23;96725.25;;;40.92;24.34
6615;BME280;3343;42.896;23.912;2022-07-23T07:52:49;96724.16;;;41.03;24.26
6615;BME280;3343;42.896;23.912;2022-07-23T07:55:18;96719.72;;;41.36;23.28
6615;BME280;3343;42.896;23.912;2022-07-23T07:57:44;96720.44;;;40.82;23.97
6615;BME280;3343;42.896;23.912;2022-07-23T08:00:11;96722.00;;;40.79;24.59
6615;BME280;3343;42.896;23.912;2022-07-23T08:02:42;96718.88;;;40.84;25.04
6615;BME280;3343;42.896;23.912;2022-07-23T08:05:10;96710.94;;;41.23;22.84
6615;BME280;3343;42.896;23.912;2022-07-23T08:07:37;96713.34;;;41.28;22.83
6615;BME280;3343;42.896;23.912;2022-07-23T08:10:06;96704.78;;;41.48;23.35
6615;BME280;3343;42.896;23.912;2022-07-23T08:12:42;96717.34;;;41.93;21.78
6615;BME280;3343;42.896;23.912;2022-07-23T08:15:11;96711.59;;;42.30;19.66
6615;BME280;3343;42.896;23.912;2022-07-23T08:17:38;96706.22;;;41.79;19.63
6615;BME280;3343;42.896;23.912;2022-07-23T08:20:06;96710.09;;;41.19;20.36
6615;BME280;3343;42.896;23.912;2022-07-23T08:22:49;96709.97;;;41.56;21.05
6615;BME280;3343;42.896;23.912;2022-07-23T08:25:19;96713.53;;;42.19;19.45
6615;BME280;3343;42.896;23.912;2022-07-23T08:27:47;96716.69;;;42.24;18.62
6615;BME280;3343;42.896;23.912;2022-07-23T08:30:15;96714.34;;;42.30;19.47
6615;BME280;3343;42.896;23.912;2022-07-23T08:32:50;96705.25;;;42.33;20.47
6615;BME280;3343;42.896;23.912;2022-07-23T08:35:18;96720.44;;;42.75;20.31
6615;BME280;3343;42.896;23.912;2022-07-23T08:37:47;96716.09;;;42.81;19.55
6615;BME280;3343;42.896;23.912;2022-07-23T08:40:14;96720.88;;;43.34;18.79
6615;BME280;3343;42.896;23.912;2022-07-23T08:42:41;96724.03;;;43.25;17.05
6615;BME280;3343;42.896;23.912;2022-07-23T08:45:11;96722.47;;;43.45;17.81
6615;BME280;3343;42.896;23.912;2022-07-23T08:47:38;96710.59;;;43.06;18.22
6615;BME280;3343;42.896;23.912;2022-07-23T08:50:07;96717.69;;;43.64;17.84
6615;BME280;3343;42.896;23.912;2022-07-23T08:52:34;96722.34;;;44.02;15.63
6615;BME280;3343;42.896;23.912;2022-07-23T08:55:03;96713.78;;;43.47;17.69
6615;BME280;3343;42.896;23.912;2022-07-23T08:57:30;96718.13;;;43.34;18.05
6615;BME280;3343;42.896;23.912;2022-07-23T08:59:57;96723.66;;;43.30;17.95
6615;BME280;3343;42.896;23.912;2022-07-23T09:02:25;96720.09;;;43.05;17.37
6615;BME280;3343;42.896;23.912;2022-07-23T09:04:52;96707.03;;;43.44;18.30
6615;BME280;3343;42.896;23.912;2022-07-23T09:07:19;96715.72;;;42.86;17.76
6615;BME280;3343;42.896;23.912;2022-07-23T09:09:46;96706.97;;;42.73;17.96
6615;BME280;3343;42.896;23.912;2022-07-23T09:12:12;96719.69;;;43.28;17.04
6615;BME280;3343;42.896;23.912;2022-07-23T09:14:41;96713.38;;;43.66;17.00
6615;BME280;3343;42.896;23.912;2022-07-23T09:17:10;96712.13;;;43.78;16.83
6615;BME280;3343;42.896;23.912;2022-07-23T09:19:40;96698.16;;;44.13;16.30
6615;BME280;3343;42.896;23.912;2022-07-23T09:22:20;96707.84;;;44.64;16.53
6615;BME280;3343;42.896;23.912;2022-07-23T09:25:06;96701.00;;;44.79;16.11
6615;BME280;3343;42.896;23.912;2022-07-23T09:27:54;96698.84;;;44.39;17.12
6615;BME280;3343;42.896;23.912;2022-07-23T09:30:23;96701.25;;;44.37;17.39
6615;BME280;3343;42.896;23.912;2022-07-23T09:33:08;96693.28;;;45.05;16.13
6615;BME280;3343;42.896;23.912;2022-07-23T09:35:47;96696.59;;;44.12;16.24
6615;BME280;3343;42.896;23.912;2022-07-23T09:38:15;96699.03;;;43.89;15.74
6615;BME280;3343;42.896;23.912;2022-07-23T09:40:43;96692.34;;;42.66;16.69
6615;BME280;3343;42.896;23.912;2022-07-23T09:43:11;96690.00;;;43.14;17.59
6615;BME280;3343;42.896;23.912;2022-07-23T09:45:38;96683.66;;;43.24;17.85
6615;BME280;3343;42.896;23.912;2022-07-23T09:48:12;96678.13;;;43.67;16.57
6615;BME280;3343;42.896;23.912;2022-07-23T09:50:40;96683.56;;;43.95;16.49
6615;BME280;3343;42.896;23.912;2022-07-23T09:53:09;96672.31;;;44.34;16.98
6615;BME280;3343;42.896;23.912;2022-07-23T09:55:36;96687.97;;;43.82;15.88
6615;BME280;3343;42.896;23.912;2022-07-23T09:58:05;96682.34;;;44.03;17.63
6615;BME280;3343;42.896;23.912;2022-07-23T10:00:34;96694.16;;;44.29;15.52
6615;BME280;3343;42.896;23.912;2022-07-23T10:03:01;96688.09;;;44.52;16.44
6615;BME280;3343;42.896;23.912;2022-07-23T10:05:29;96682.03;;;44.67;14.28
6615;BME280;3343;42.896;23.912;2022-07-23T10:07:58;96673.63;;;44.05;14.87
6615;BME280;3343;42.896;23.912;2022-07-23T10:10:30;96676.31;;;44.26;16.27
6615;BME280;3343;42.896;23.912;2022-07-23T10:12:57;96676.06;;;44.69;14.99
6615;BME280;3343;42.896;23.912;2022-07-23T10:15:50;96674.25;;;44.41;15.75
6615;BME280;3343;42.896;23.912;2022-07-23T10:18:16;96663.25;;;44.20;15.51
6615;BME280;3343;42.896;23.912;2022-07-23T10:20:44;96658.91;;;44.88;15.79
6615;BME280;3343;42.896;23.912;2022-07-23T10:23:18;96666.72;;;44.41;15.87
6615;BME280;3343;42.896;23.912;2022-07-23T10:25:58;96661.88;;;43.72;15.69
6615;BME280;3343;42.896;23.912;2022-07-23T10:28:40;96658.25;;;43.82;15.35
6615;BME280;3343;42.896;23.912;2022-07-23T10:31:17;96657.50;;;43.61;16.40
6615;BME280;3343;42.896;23.912;2022-07-23T10:33:56;96653.06;;;43.95;16.72
6615;BME280;3343;42.896;23.912;2022-07-23T10:36:31;96650.03;;;44.52;15.44
6615;BME280;3343;42.896;23.912;2022-07-23T10:39:04;96647.22;;;43.72;15.80
6615;BME280;3343;42.896;23.912;2022-07-23T10:41:35;96638.16;;;43.46;15.98
6615;BME280;3343;42.896;23.912;2022-07-23T10:44:09;96621.88;;;43.70;15.75
6615;BME280;3343;42.896;23.912;2022-07-23T10:46:53;96648.00;;;43.72;15.78
6615;BME280;3343;42.896;23.912;2022-07-23T10:49:27;96642.91;;;43.46;15.76
6615;BME280;3343;42.896;23.912;2022-07-23T10:52:23;96638.00;;;43.93;16.61
6615;BME280;3343;42.896;23.912;2022-07-23T10:54:53;96636.06;;;43.86;15.44
6615;BME280;3343;42.896;23.912;2022-07-23T10:57:23;96631.44;;;43.22;15.61
6615;BME280;3343;42.896;23.912;2022-07-23T11:02:52;96620.31;;;43.54;16.66
6615;BME280;3343;42.896;23.912;2022-07-23T11:05:20;96617.97;;;43.49;15.67
6615;BME280;3343;42.896;23.912;2022-07-23T11:08:10;96616.41;;;43.38;15.25
6615;BME280;3343;42.896;23.912;2022-07-23T11:10:42;96605.97;;;43.84;16.28
6615;BME280;3343;42.896;23.912;2022-07-23T11:13:35;96607.81;;;44.12;15.93
6615;BME280;3343;42.896;23.912;2022-07-23T11:16:08;96609.09;;;44.63;15.85
6615;BME280;3343;42.896;23.912;2022-07-23T11:18:59;96607.06;;;44.71;15.72
6615;BME280;3343;42.896;23.912;2022-07-23T11:21:43;96599.72;;;42.06;16.49
6615;BME280;3343;42.896;23.912;2022-07-23T11:24:12;96579.31;;;41.52;17.70
6615;BME280;3343;42.896;23.912;2022-07-23T11:26:53;96604.44;;;42.09;16.97
6615;BME280;3343;42.896;23.912;2022-07-23T11:29:44;96595.78;;;42.14;16.99
6615;BME280;3343;42.896;23.912;2022-07-23T11:32:27;96595.22;;;41.66;17.23
6615;BME280;3343;42.896;23.912;2022-07-23T11:34:55;96596.41;;;41.69;16.98
6615;BME280;3343;42.896;23.912;2022-07-23T11:37:35;96595.63;;;41.75;16.97
6615;BME280;3343;42.896;23.912;2022-07-23T11:40:06;96597.34;;;42.08;16.51
6615;BME280;3343;42.896;23.912;2022-07-23T11:42:35;96592.25;;;42.32;15.99
6615;BME280;3343;42.896;23.912;2022-07-23T11:45:06;96585.19;;;42.52;16.37
6615;BME280;3343;42.896;23.912;2022-07-23T11:47:33;96580.03;;;43.00;16.69
6615;BME280;3343;42.896;23.912;2022-07-23T11:50:02;96569.72;;;43.26;15.34
6615;BME280;3343;42.896;23.912;2022-07-23T11:52:30;96575.66;;;43.38;16.21
6615;BME280;3343;42.896;23.912;2022-07-23T11:55:00;96573.94;;;43.73;15.88
6615;BME280;3343;42.896;23.912;2022-07-23T11:57:29;96582.72;;;43.53;15.85
6615;BME280;3343;42.896;23.912;2022-07-23T12:00:01;96575.66;;;43.10;15.24
6615;BME280;3343;42.896;23.912;2022-07-23T12:02:31;96575.31;;;42.94;15.69
6615;BME280;3343;42.896;23.912;2022-07-23T12:04:58;96574.50;;;42.97;14.97
6615;BME280;3343;42.896;23.912;2022-07-23T12:07:27;96583.56;;;43.15;14.46
6615;BME280;3343;42.896;23.912;2022-07-23T12:09:56;96573.28;;;43.12;14.86
6615;BME280;3343;42.896;23.912;2022-07-23T12:12:24;96568.03;;;43.57;14.30
6615;BME280;3343;42.896;23.912;2022-07-23T12:14:52;96566.69;;;43.93;13.87
6615;BME280;3343;42.896;23.912;2022-07-23T12:17:20;96561.88;;;42.88;13.11
6615;BME280;3343;42.896;23.912;2022-07-23T12:19:49;96566.56;;;42.42;13.12
6615;BME280;3343;42.896;23.912;2022-07-23T12:22:17;96562.66;;;42.64;13.23
6615;BME280;3343;42.896;23.912;2022-07-23T12:24:56;96566.59;;;42.84;12.87
6615;BME280;3343;42.896;23.912;2022-07-23T12:27:23;96558.25;;;42.20;13.38
6615;BME280;3343;42.896;23.912;2022-07-23T12:29:51;96558.66;;;42.44;13.58
6615;BME280;3343;42.896;23.912;2022-07-23T12:32:21;96568.19;;;42.92;12.77
6615;BME280;3343;42.896;23.912;2022-07-23T12:34:51;96563.44;;;42.68;12.83
6615;BME280;3343;42.896;23.912;2022-07-23T12:37:29;96558.59;;;42.01;13.37
6615;BME280;3343;42.896;23.912;2022-07-23T12:39:56;96557.44;;;42.16;14.02
6615;BME280;3343;42.896;23.912;2022-07-23T12:42:24;96553.16;;;42.90;14.20
6615;BME280;3343;42.896;23.912;2022-07-23T12:45:09;96542.06;;;42.26;13.47
6615;BME280;3343;42.896;23.912;2022-07-23T12:47:58;96549.22;;;42.87;13.31
6615;BME280;3343;42.896;23.912;2022-07-23T12:50:37;96536.94;;;42.71;13.16
6615;BME280;3343;42.896;23.912;2022-07-23T12:53:06;96541.69;;;42.67;13.99
6615;BME280;3343;42.896;23.912;2022-07-23T12:55:33;96543.97;;;42.01;12.94
6615;BME280;3343;42.896;23.912;2022-07-23T12:58:05;96540.91;;;42.48;12.73
6615;BME280;3343;42.896;23.912;2022-07-23T13:00:55;96540.91;;;42.59;13.68
6615;BME280;3343;42.896;23.912;2022-07-23T13:03:32;96535.75;;;42.97;12.80
6615;BME280;3343;42.896;23.912;2022-07-23T13:06:02;96539.25;;;43.36;13.67
6615;BME280;3343;42.896;23.912;2022-07-23T13:08:30;96534.38;;;43.58;12.99
6615;BME280;3343;42.896;23.912;2022-07-23T13:10:58;96514.31;;;44.09;11.97
6615;BME280;3343;42.896;23.912;2022-07-23T13:13:27;96530.88;;;44.20;11.90
6615;BME280;3343;42.896;23.912;2022-07-23T13:15:55;96521.16;;;43.91;12.69
6615;BME280;3343;42.896;23.912;2022-07-23T13:18:21;96522.38;;;43.86;12.26
6615;BME280;3343;42.896;23.912;2022-07-23T13:20:49;96523.03;;;44.08;12.40
6615;BME280;3343;42.896;23.912;2022-07-23T13:23:18;96518.06;;;44.44;13.15
6615;BME280;3343;42.896;23.912;2022-07-23T13:25:45;96512.16;;;44.35;13.67
6615;BME280;3343;42.896;23.912;2022-07-23T13:28:12;96497.75;;;44.54;14.43
6615;BME280;3343;42.896;23.912;2022-07-23T13:30:40;96518.50;;;44.80;13.47
6615;BME280;3343;42.896;23.912;2022-07-23T13:33:07;96511.81;;;44.74;13.85